Terminal Aerodrome Forecast
Issued by NWS Wilmington, NC

Home | Current Version | Previous Version | Text Only | Print | Product List | Glossary On
Versions: 1 2 3 4 5 6 7 8 9 10 11 12 13
000
FTUS42 KILM 291720
TAFILM
TAF
KILM 291720Z 2918/3018 13012G21KT 6SM -SHRA BKN030
      TEMPO 2918/2922 3SM +SHRA BKN018
     FM300100 12004KT 6SM -SHRA BKN014
     FM300700 13004KT P6SM VCSH BKN008
     FM301100 14006KT 5SM -SHRA BKN016=

USA.gov is the U.S. government's official web portal to all federal, state and local government web resources and services.